sensor_id;sensor_type;location;lat;lon;timestamp;P1;durP1;ratioP1;P2;durP2;ratioP2
24008;SDS011;12217;50.792;4.372;2023-05-27T00:00:02;19.02;;;5.43;;
24008;SDS011;12217;50.792;4.372;2023-05-27T00:02:29;20.55;;;5.60;;
24008;SDS011;12217;50.792;4.372;2023-05-27T00:04:54;16.83;;;5.00;;
24008;SDS011;12217;50.792;4.372;2023-05-27T00:07:20;15.65;;;4.85;;
24008;SDS011;12217;50.792;4.372;2023-05-27T00:09:45;20.83;;;5.35;;
24008;SDS011;12217;50.792;4.372;2023-05-27T00:12:11;16.25;;;5.30;;
24008;SDS011;12217;50.792;4.372;2023-05-27T00:14:36;16.85;;;5.00;;
24008;SDS011;12217;50.792;4.372;2023-05-27T00:17:02;18.20;;;5.00;;
24008;SDS011;12217;50.792;4.372;2023-05-27T00:19:28;23.38;;;5.88;;
24008;SDS011;12217;50.792;4.372;2023-05-27T00:21:55;20.73;;;5.30;;
24008;SDS011;12217;50.792;4.372;2023-05-27T00:24:21;18.00;;;5.40;;
24008;SDS011;12217;50.792;4.372;2023-05-27T00:26:47;15.43;;;5.35;;
24008;SDS011;12217;50.792;4.372;2023-05-27T00:29:13;17.58;;;5.63;;
24008;SDS011;12217;50.792;4.372;2023-05-27T00:31:41;16.00;;;5.20;;
24008;SDS011;12217;50.792;4.372;2023-05-27T00:34:07;18.00;;;5.25;;
24008;SDS011;12217;50.792;4.372;2023-05-27T00:36:32;20.55;;;5.60;;
24008;SDS011;12217;50.792;4.372;2023-05-27T00:38:58;20.02;;;6.47;;
24008;SDS011;12217;50.792;4.372;2023-05-27T00:41:23;19.98;;;5.50;;
24008;SDS011;12217;50.792;4.372;2023-05-27T00:43:51;18.02;;;5.38;;
24008;SDS011;12217;50.792;4.372;2023-05-27T00:46:17;20.60;;;5.82;;
24008;SDS011;12217;50.792;4.372;2023-05-27T00:48:43;21.08;;;5.07;;
24008;SDS011;12217;50.792;4.372;2023-05-27T00:51:09;17.27;;;5.15;;
24008;SDS011;12217;50.792;4.372;2023-05-27T00:53:41;16.85;;;5.82;;
24008;SDS011;12217;50.792;4.372;2023-05-27T00:56:09;17.75;;;5.60;;
24008;SDS011;12217;50.792;4.372;2023-05-27T00:58:36;18.88;;;5.85;;
24008;SDS011;12217;50.792;4.372;2023-05-27T01:01:02;16.92;;;5.93;;
24008;SDS011;12217;50.792;4.372;2023-05-27T01:03:28;16.73;;;5.45;;
24008;SDS011;12217;50.792;4.372;2023-05-27T01:05:58;20.15;;;5.38;;
24008;SDS011;12217;50.792;4.372;2023-05-27T01:08:34;18.48;;;5.28;;
24008;SDS011;12217;50.792;4.372;2023-05-27T01:11:07;17.65;;;5.53;;
24008;SDS011;12217;50.792;4.372;2023-05-27T01:13:38;14.45;;;5.40;;
24008;SDS011;12217;50.792;4.372;2023-05-27T01:16:09;16.33;;;5.45;;
24008;SDS011;12217;50.792;4.372;2023-05-27T01:18:36;19.95;;;5.60;;
24008;SDS011;12217;50.792;4.372;2023-05-27T01:21:06;17.75;;;6.05;;
24008;SDS011;12217;50.792;4.372;2023-05-27T01:23:34;19.45;;;5.45;;
24008;SDS011;12217;50.792;4.372;2023-05-27T01:26:03;20.13;;;6.05;;
24008;SDS011;12217;50.792;4.372;2023-05-27T01:28:30;17.00;;;5.78;;
24008;SDS011;12217;50.792;4.372;2023-05-27T01:30:57;23.55;;;6.45;;
24008;SDS011;12217;50.792;4.372;2023-05-27T01:33:31;18.48;;;6.00;;
24008;SDS011;12217;50.792;4.372;2023-05-27T01:36:02;15.07;;;5.57;;
24008;SDS011;12217;50.792;4.372;2023-05-27T01:38:31;17.17;;;6.33;;
24008;SDS011;12217;50.792;4.372;2023-05-27T01:40:58;17.27;;;5.68;;
24008;SDS011;12217;50.792;4.372;2023-05-27T01:43:25;20.23;;;5.88;;
24008;SDS011;12217;50.792;4.372;2023-05-27T01:45:51;16.52;;;5.88;;
24008;SDS011;12217;50.792;4.372;2023-05-27T01:48:17;16.10;;;5.28;;
24008;SDS011;12217;50.792;4.372;2023-05-27T01:50:44;17.38;;;6.03;;
24008;SDS011;12217;50.792;4.372;2023-05-27T01:53:09;20.30;;;5.80;;
24008;SDS011;12217;50.792;4.372;2023-05-27T01:55:36;18.77;;;5.50;;
24008;SDS011;12217;50.792;4.372;2023-05-27T01:58:02;18.38;;;5.82;;
24008;SDS011;12217;50.792;4.372;2023-05-27T02:00:28;19.15;;;6.20;;
24008;SDS011;12217;50.792;4.372;2023-05-27T02:02:54;23.85;;;6.32;;
24008;SDS011;12217;50.792;4.372;2023-05-27T02:05:20;19.35;;;5.80;;
24008;SDS011;12217;50.792;4.372;2023-05-27T02:07:46;20.92;;;5.60;;
24008;SDS011;12217;50.792;4.372;2023-05-27T02:10:11;21.02;;;7.18;;
24008;SDS011;12217;50.792;4.372;2023-05-27T02:12:37;21.02;;;6.65;;
24008;SDS011;12217;50.792;4.372;2023-05-27T02:15:03;16.92;;;5.78;;
24008;SDS011;12217;50.792;4.372;2023-05-27T02:17:28;21.13;;;5.97;;
24008;SDS011;12217;50.792;4.372;2023-05-27T02:19:54;21.48;;;6.57;;
24008;SDS011;12217;50.792;4.372;2023-05-27T02:22:20;19.13;;;6.55;;
24008;SDS011;12217;50.792;4.372;2023-05-27T02:24:46;18.80;;;6.22;;
24008;SDS011;12217;50.792;4.372;2023-05-27T02:27:11;20.67;;;6.20;;
24008;SDS011;12217;50.792;4.372;2023-05-27T02:29:37;17.58;;;5.90;;
24008;SDS011;12217;50.792;4.372;2023-05-27T02:32:03;16.42;;;5.88;;
24008;SDS011;12217;50.792;4.372;2023-05-27T02:34:29;18.67;;;5.93;;
24008;SDS011;12217;50.792;4.372;2023-05-27T02:36:54;18.08;;;6.32;;
24008;SDS011;12217;50.792;4.372;2023-05-27T02:39:20;16.20;;;5.95;;
24008;SDS011;12217;50.792;4.372;2023-05-27T02:41:46;15.70;;;5.80;;
24008;SDS011;12217;50.792;4.372;2023-05-27T02:44:11;22.00;;;6.30;;
24008;SDS011;12217;50.792;4.372;2023-05-27T02:46:37;23.17;;;6.20;;
24008;SDS011;12217;50.792;4.372;2023-05-27T02:49:02;17.17;;;6.15;;
24008;SDS011;12217;50.792;4.372;2023-05-27T02:51:28;18.67;;;6.70;;
24008;SDS011;12217;50.792;4.372;2023-05-27T02:53:54;25.20;;;9.77;;
24008;SDS011;12217;50.792;4.372;2023-05-27T02:56:20;20.60;;;6.65;;
24008;SDS011;12217;50.792;4.372;2023-05-27T02:58:46;17.67;;;6.60;;
24008;SDS011;12217;50.792;4.372;2023-05-27T03:01:11;21.48;;;6.97;;
24008;SDS011;12217;50.792;4.372;2023-05-27T03:03:37;22.52;;;6.35;;
24008;SDS011;12217;50.792;4.372;2023-05-27T03:06:03;19.88;;;6.35;;
24008;SDS011;12217;50.792;4.372;2023-05-27T03:08:29;19.40;;;6.50;;
24008;SDS011;12217;50.792;4.372;2023-05-27T03:10:55;19.65;;;6.20;;
24008;SDS011;12217;50.792;4.372;2023-05-27T03:13:20;19.17;;;6.50;;
24008;SDS011;12217;50.792;4.372;2023-05-27T03:15:46;18.80;;;5.80;;
24008;SDS011;12217;50.792;4.372;2023-05-27T03:18:12;22.45;;;6.50;;
24008;SDS011;12217;50.792;4.372;2023-05-27T03:20:37;16.08;;;6.28;;
24008;SDS011;12217;50.792;4.372;2023-05-27T03:23:03;25.23;;;6.60;;
24008;SDS011;12217;50.792;4.372;2023-05-27T03:25:28;22.80;;;6.43;;
24008;SDS011;12217;50.792;4.372;2023-05-27T03:27:54;16.70;;;6.20;;
24008;SDS011;12217;50.792;4.372;2023-05-27T03:30:20;17.23;;;6.25;;
24008;SDS011;12217;50.792;4.372;2023-05-27T03:32:45;17.30;;;6.25;;
24008;SDS011;12217;50.792;4.372;2023-05-27T03:35:11;20.50;;;6.53;;
24008;SDS011;12217;50.792;4.372;2023-05-27T03:37:37;21.20;;;6.97;;
24008;SDS011;12217;50.792;4.372;2023-05-27T03:40:02;21.02;;;7.28;;
24008;SDS011;12217;50.792;4.372;2023-05-27T03:42:28;19.70;;;6.60;;
24008;SDS011;12217;50.792;4.372;2023-05-27T03:44:54;22.98;;;6.60;;
24008;SDS011;12217;50.792;4.372;2023-05-27T03:47:20;20.70;;;7.20;;
24008;SDS011;12217;50.792;4.372;2023-05-27T03:49:46;17.85;;;6.22;;
24008;SDS011;12217;50.792;4.372;2023-05-27T03:52:13;17.45;;;6.32;;
24008;SDS011;12217;50.792;4.372;2023-05-27T03:54:39;21.83;;;7.20;;
24008;SDS011;12217;50.792;4.372;2023-05-27T03:57:05;17.58;;;6.05;;
24008;SDS011;12217;50.792;4.372;2023-05-27T03:59:32;22.55;;;6.35;;
24008;SDS011;12217;50.792;4.372;2023-05-27T04:01:57;17.08;;;6.65;;
24008;SDS011;12217;50.792;4.372;2023-05-27T04:04:23;19.38;;;6.68;;
24008;SDS011;12217;50.792;4.372;2023-05-27T04:06:48;21.20;;;6.90;;
24008;SDS011;12217;50.792;4.372;2023-05-27T04:09:14;13.98;;;6.22;;
24008;SDS011;12217;50.792;4.372;2023-05-27T04:11:39;24.77;;;6.65;;
24008;SDS011;12217;50.792;4.372;2023-05-27T04:14:05;18.95;;;6.32;;
24008;SDS011;12217;50.792;4.372;2023-05-27T04:16:34;20.55;;;6.70;;
24008;SDS011;12217;50.792;4.372;2023-05-27T04:19:00;19.73;;;6.88;;
24008;SDS011;12217;50.792;4.372;2023-05-27T04:21:26;21.63;;;7.63;;
24008;SDS011;12217;50.792;4.372;2023-05-27T04:23:52;20.83;;;6.55;;
24008;SDS011;12217;50.792;4.372;2023-05-27T04:26:17;20.80;;;7.22;;
24008;SDS011;12217;50.792;4.372;2023-05-27T04:28:43;22.05;;;7.00;;
24008;SDS011;12217;50.792;4.372;2023-05-27T04:31:10;14.43;;;6.18;;
24008;SDS011;12217;50.792;4.372;2023-05-27T04:33:40;21.35;;;6.97;;
24008;SDS011;12217;50.792;4.372;2023-05-27T04:36:09;22.83;;;6.85;;
24008;SDS011;12217;50.792;4.372;2023-05-27T04:38:35;17.50;;;6.28;;
24008;SDS011;12217;50.792;4.372;2023-05-27T04:41:01;19.70;;;6.78;;
24008;SDS011;12217;50.792;4.372;2023-05-27T04:43:27;19.73;;;7.28;;
24008;SDS011;12217;50.792;4.372;2023-05-27T04:45:54;18.50;;;7.22;;
24008;SDS011;12217;50.792;4.372;2023-05-27T04:48:21;20.35;;;7.05;;
24008;SDS011;12217;50.792;4.372;2023-05-27T04:50:48;20.33;;;7.43;;
24008;SDS011;12217;50.792;4.372;2023-05-27T04:53:18;16.95;;;6.93;;
24008;SDS011;12217;50.792;4.372;2023-05-27T04:55:44;20.13;;;7.20;;
24008;SDS011;12217;50.792;4.372;2023-05-27T04:58:10;20.42;;;7.88;;
24008;SDS011;12217;50.792;4.372;2023-05-27T05:00:36;17.92;;;7.43;;
24008;SDS011;12217;50.792;4.372;2023-05-27T05:03:04;18.58;;;7.47;;
24008;SDS011;12217;50.792;4.372;2023-05-27T05:05:30;19.45;;;7.68;;
24008;SDS011;12217;50.792;4.372;2023-05-27T05:07:56;18.85;;;6.88;;
24008;SDS011;12217;50.792;4.372;2023-05-27T05:10:22;17.75;;;7.55;;
24008;SDS011;12217;50.792;4.372;2023-05-27T05:12:48;22.70;;;7.68;;
24008;SDS011;12217;50.792;4.372;2023-05-27T05:15:14;22.27;;;7.47;;
24008;SDS011;12217;50.792;4.372;2023-05-27T05:17:39;19.67;;;7.28;;
24008;SDS011;12217;50.792;4.372;2023-05-27T05:20:05;20.48;;;7.78;;
24008;SDS011;12217;50.792;4.372;2023-05-27T05:22:31;22.13;;;7.65;;
24008;SDS011;12217;50.792;4.372;2023-05-27T05:24:57;21.42;;;7.75;;
24008;SDS011;12217;50.792;4.372;2023-05-27T05:27:23;22.67;;;7.68;;
24008;SDS011;12217;50.792;4.372;2023-05-27T05:29:50;20.35;;;7.63;;
24008;SDS011;12217;50.792;4.372;2023-05-27T05:32:15;17.38;;;7.43;;
24008;SDS011;12217;50.792;4.372;2023-05-27T05:34:41;22.90;;;7.60;;
24008;SDS011;12217;50.792;4.372;2023-05-27T05:37:06;25.38;;;8.48;;
24008;SDS011;12217;50.792;4.372;2023-05-27T05:39:32;23.80;;;8.73;;
24008;SDS011;12217;50.792;4.372;2023-05-27T05:41:58;25.33;;;8.57;;
24008;SDS011;12217;50.792;4.372;2023-05-27T05:44:24;21.40;;;8.07;;
24008;SDS011;12217;50.792;4.372;2023-05-27T05:46:51;20.67;;;7.68;;
24008;SDS011;12217;50.792;4.372;2023-05-27T05:49:17;19.77;;;7.90;;
24008;SDS011;12217;50.792;4.372;2023-05-27T05:51:43;20.38;;;7.65;;
24008;SDS011;12217;50.792;4.372;2023-05-27T05:54:09;18.83;;;7.43;;
24008;SDS011;12217;50.792;4.372;2023-05-27T05:56:34;22.80;;;7.97;;
24008;SDS011;12217;50.792;4.372;2023-05-27T05:59:00;22.90;;;8.48;;
24008;SDS011;12217;50.792;4.372;2023-05-27T06:01:26;22.15;;;8.35;;
24008;SDS011;12217;50.792;4.372;2023-05-27T06:03:54;23.30;;;8.05;;
24008;SDS011;12217;50.792;4.372;2023-05-27T06:06:21;29.13;;;8.75;;
24008;SDS011;12217;50.792;4.372;2023-05-27T06:08:47;23.30;;;8.25;;
24008;SDS011;12217;50.792;4.372;2023-05-27T06:11:12;21.45;;;8.35;;
24008;SDS011;12217;50.792;4.372;2023-05-27T06:13:38;18.38;;;8.80;;
24008;SDS011;12217;50.792;4.372;2023-05-27T06:16:04;22.83;;;8.63;;
24008;SDS011;12217;50.792;4.372;2023-05-27T06:18:30;23.17;;;8.35;;
24008;SDS011;12217;50.792;4.372;2023-05-27T06:20:56;21.75;;;8.57;;
24008;SDS011;12217;50.792;4.372;2023-05-27T06:23:22;23.73;;;8.85;;
24008;SDS011;12217;50.792;4.372;2023-05-27T06:25:47;25.95;;;8.88;;
24008;SDS011;12217;50.792;4.372;2023-05-27T06:28:13;21.35;;;8.45;;
24008;SDS011;12217;50.792;4.372;2023-05-27T06:30:38;21.85;;;8.50;;
24008;SDS011;12217;50.792;4.372;2023-05-27T06:33:04;22.60;;;8.63;;
24008;SDS011;12217;50.792;4.372;2023-05-27T06:35:30;23.33;;;9.85;;
24008;SDS011;12217;50.792;4.372;2023-05-27T06:37:57;23.83;;;8.38;;
24008;SDS011;12217;50.792;4.372;2023-05-27T06:40:23;25.10;;;9.30;;
24008;SDS011;12217;50.792;4.372;2023-05-27T06:42:49;19.92;;;8.90;;
24008;SDS011;12217;50.792;4.372;2023-05-27T06:45:15;22.55;;;8.80;;
24008;SDS011;12217;50.792;4.372;2023-05-27T06:47:40;22.67;;;8.40;;
24008;SDS011;12217;50.792;4.372;2023-05-27T06:50:06;24.17;;;8.35;;
24008;SDS011;12217;50.792;4.372;2023-05-27T06:52:32;21.38;;;8.18;;
24008;SDS011;12217;50.792;4.372;2023-05-27T06:54:58;17.33;;;8.27;;
24008;SDS011;12217;50.792;4.372;2023-05-27T06:57:23;21.08;;;8.60;;
24008;SDS011;12217;50.792;4.372;2023-05-27T06:59:49;21.48;;;9.15;;
24008;SDS011;12217;50.792;4.372;2023-05-27T07:02:14;23.23;;;9.15;;
24008;SDS011;12217;50.792;4.372;2023-05-27T07:04:40;16.75;;;7.35;;
24008;SDS011;12217;50.792;4.372;2023-05-27T07:07:06;20.25;;;8.10;;
24008;SDS011;12217;50.792;4.372;2023-05-27T07:09:32;16.33;;;7.22;;
24008;SDS011;12217;50.792;4.372;2023-05-27T07:11:57;19.90;;;7.80;;
24008;SDS011;12217;50.792;4.372;2023-05-27T07:14:24;19.63;;;7.68;;
24008;SDS011;12217;50.792;4.372;2023-05-27T07:16:49;18.98;;;7.03;;
24008;SDS011;12217;50.792;4.372;2023-05-27T07:19:15;19.98;;;7.72;;
24008;SDS011;12217;50.792;4.372;2023-05-27T07:21:41;16.85;;;7.32;;
24008;SDS011;12217;50.792;4.372;2023-05-27T07:24:06;16.05;;;7.18;;
24008;SDS011;12217;50.792;4.372;2023-05-27T07:26:32;20.33;;;7.25;;
24008;SDS011;12217;50.792;4.372;2023-05-27T07:28:58;20.55;;;6.90;;
24008;SDS011;12217;50.792;4.372;2023-05-27T07:31:25;14.98;;;7.07;;
24008;SDS011;12217;50.792;4.372;2023-05-27T07:33:53;18.75;;;6.93;;
24008;SDS011;12217;50.792;4.372;2023-05-27T07:36:18;17.15;;;7.28;;
24008;SDS011;12217;50.792;4.372;2023-05-27T07:38:44;18.13;;;8.00;;
24008;SDS011;12217;50.792;4.372;2023-05-27T07:41:10;20.88;;;8.85;;
24008;SDS011;12217;50.792;4.372;2023-05-27T07:43:36;24.33;;;7.70;;
24008;SDS011;12217;50.792;4.372;2023-05-27T07:46:02;21.70;;;7.13;;
24008;SDS011;12217;50.792;4.372;2023-05-27T07:48:28;19.42;;;7.20;;
24008;SDS011;12217;50.792;4.372;2023-05-27T07:50:54;20.13;;;8.23;;
24008;SDS011;12217;50.792;4.372;2023-05-27T07:53:20;19.00;;;7.55;;
24008;SDS011;12217;50.792;4.372;2023-05-27T07:55:46;13.90;;;6.80;;
24008;SDS011;12217;50.792;4.372;2023-05-27T07:58:13;17.90;;;7.10;;
24008;SDS011;12217;50.792;4.372;2023-05-27T08:00:38;18.95;;;7.80;;
24008;SDS011;12217;50.792;4.372;2023-05-27T08:03:04;21.83;;;7.30;;
24008;SDS011;12217;50.792;4.372;2023-05-27T08:05:30;17.70;;;7.68;;
24008;SDS011;12217;50.792;4.372;2023-05-27T08:07:56;17.73;;;7.10;;
24008;SDS011;12217;50.792;4.372;2023-05-27T08:10:21;17.92;;;6.90;;
24008;SDS011;12217;50.792;4.372;2023-05-27T08:12:47;16.55;;;7.32;;
24008;SDS011;12217;50.792;4.372;2023-05-27T08:15:13;20.65;;;7.75;;
24008;SDS011;12217;50.792;4.372;2023-05-27T08:17:38;18.23;;;8.45;;
24008;SDS011;12217;50.792;4.372;2023-05-27T08:20:05;20.27;;;7.50;;
24008;SDS011;12217;50.792;4.372;2023-05-27T08:22:31;18.77;;;8.48;;
24008;SDS011;12217;50.792;4.372;2023-05-27T08:24:56;19.88;;;7.25;;
24008;SDS011;12217;50.792;4.372;2023-05-27T08:27:41;18.55;;;7.65;;
24008;SDS011;12217;50.792;4.372;2023-05-27T08:30:08;17.02;;;7.35;;
24008;SDS011;12217;50.792;4.372;2023-05-27T08:32:34;18.08;;;6.93;;
24008;SDS011;12217;50.792;4.372;2023-05-27T08:35:00;18.42;;;8.23;;
24008;SDS011;12217;50.792;4.372;2023-05-27T08:37:26;18.80;;;7.68;;
24008;SDS011;12217;50.792;4.372;2023-05-27T08:39:52;19.13;;;7.32;;
24008;SDS011;12217;50.792;4.372;2023-05-27T08:42:19;16.33;;;6.70;;
24008;SDS011;12217;50.792;4.372;2023-05-27T08:44:44;19.80;;;8.27;;
24008;SDS011;12217;50.792;4.372;2023-05-27T08:47:11;22.63;;;7.32;;
24008;SDS011;12217;50.792;4.372;2023-05-27T08:49:37;24.20;;;8.73;;
24008;SDS011;12217;50.792;4.372;2023-05-27T08:52:02;17.75;;;6.88;;
24008;SDS011;12217;50.792;4.372;2023-05-27T08:54:30;18.00;;;7.18;;
24008;SDS011;12217;50.792;4.372;2023-05-27T08:56:57;17.52;;;7.63;;
24008;SDS011;12217;50.792;4.372;2023-05-27T08:59:24;15.00;;;7.60;;
24008;SDS011;12217;50.792;4.372;2023-05-27T09:01:51;24.85;;;8.55;;
24008;SDS011;12217;50.792;4.372;2023-05-27T09:04:17;18.50;;;6.63;;
24008;SDS011;12217;50.792;4.372;2023-05-27T09:06:42;16.27;;;7.78;;
24008;SDS011;12217;50.792;4.372;2023-05-27T09:09:08;18.25;;;7.75;;
24008;SDS011;12217;50.792;4.372;2023-05-27T09:11:38;18.75;;;7.40;;
24008;SDS011;12217;50.792;4.372;2023-05-27T09:14:05;16.10;;;7.28;;
24008;SDS011;12217;50.792;4.372;2023-05-27T09:16:30;21.20;;;7.63;;
24008;SDS011;12217;50.792;4.372;2023-05-27T09:18:56;17.65;;;7.25;;
24008;SDS011;12217;50.792;4.372;2023-05-27T09:21:23;22.67;;;7.70;;
24008;SDS011;12217;50.792;4.372;2023-05-27T09:23:54;17.02;;;7.13;;
24008;SDS011;12217;50.792;4.372;2023-05-27T09:26:22;20.73;;;7.30;;
24008;SDS011;12217;50.792;4.372;2023-05-27T09:28:48;19.77;;;7.18;;
24008;SDS011;12217;50.792;4.372;2023-05-27T09:31:14;21.00;;;8.73;;
24008;SDS011;12217;50.792;4.372;2023-05-27T09:33:40;18.98;;;8.07;;
24008;SDS011;12217;50.792;4.372;2023-05-27T09:36:06;24.30;;;8.32;;
24008;SDS011;12217;50.792;4.372;2023-05-27T09:38:34;18.67;;;7.28;;
24008;SDS011;12217;50.792;4.372;2023-05-27T09:41:01;15.98;;;6.70;;
24008;SDS011;12217;50.792;4.372;2023-05-27T09:43:27;17.90;;;6.78;;
24008;SDS011;12217;50.792;4.372;2023-05-27T09:46:00;16.35;;;7.55;;
24008;SDS011;12217;50.792;4.372;2023-05-27T09:48:30;21.42;;;7.95;;
24008;SDS011;12217;50.792;4.372;2023-05-27T09:50:57;19.08;;;6.70;;
24008;SDS011;12217;50.792;4.372;2023-05-27T09:53:24;16.38;;;6.80;;
24008;SDS011;12217;50.792;4.372;2023-05-27T09:55:54;20.73;;;6.93;;
24008;SDS011;12217;50.792;4.372;2023-05-27T09:58:21;14.68;;;6.45;;
24008;SDS011;12217;50.792;4.372;2023-05-27T10:00:47;16.70;;;7.15;;
24008;SDS011;12217;50.792;4.372;2023-05-27T10:03:15;18.75;;;6.32;;
24008;SDS011;12217;50.792;4.372;2023-05-27T10:05:42;17.90;;;6.72;;
24008;SDS011;12217;50.792;4.372;2023-05-27T10:08:10;20.27;;;6.82;;
24008;SDS011;12217;50.792;4.372;2023-05-27T10:10:37;19.10;;;6.85;;
24008;SDS011;12217;50.792;4.372;2023-05-27T10:13:02;15.38;;;6.53;;
24008;SDS011;12217;50.792;4.372;2023-05-27T10:15:29;17.38;;;6.80;;
24008;SDS011;12217;50.792;4.372;2023-05-27T10:20:34;15.52;;;6.25;;
24008;SDS011;12217;50.792;4.372;2023-05-27T10:23:20;22.75;;;6.30;;
24008;SDS011;12217;50.792;4.372;2023-05-27T10:25:51;18.05;;;7.30;;
24008;SDS011;12217;50.792;4.372;2023-05-27T10:31:02;16.90;;;6.97;;
24008;SDS011;12217;50.792;4.372;2023-05-27T10:33:29;16.77;;;6.03;;
24008;SDS011;12217;50.792;4.372;2023-05-27T10:35:55;18.02;;;6.00;;
24008;SDS011;12217;50.792;4.372;2023-05-27T10:38:21;15.60;;;6.15;;
24008;SDS011;12217;50.792;4.372;2023-05-27T10:40:47;17.20;;;6.28;;
24008;SDS011;12217;50.792;4.372;2023-05-27T10:43:23;14.48;;;6.13;;
24008;SDS011;12217;50.792;4.372;2023-05-27T10:48:32;14.70;;;5.85;;
24008;SDS011;12217;50.792;4.372;2023-05-27T10:50:59;16.48;;;6.15;;
24008;SDS011;12217;50.792;4.372;2023-05-27T10:53:25;13.68;;;6.25;;
24008;SDS011;12217;50.792;4.372;2023-05-27T10:55:52;14.40;;;5.75;;
24008;SDS011;12217;50.792;4.372;2023-05-27T10:58:19;17.25;;;6.10;;
24008;SDS011;12217;50.792;4.372;2023-05-27T11:00:47;16.08;;;6.70;;
24008;SDS011;12217;50.792;4.372;2023-05-27T11:03:19;14.00;;;5.55;;
24008;SDS011;12217;50.792;4.372;2023-05-27T11:05:59;14.25;;;5.85;;
24008;SDS011;12217;50.792;4.372;2023-05-27T11:08:26;14.60;;;5.68;;
24008;SDS011;12217;50.792;4.372;2023-05-27T11:15:57;15.25;;;5.40;;
24008;SDS011;12217;50.792;4.372;2023-05-27T11:18:22;18.77;;;5.95;;
24008;SDS011;12217;50.792;4.372;2023-05-27T11:20:48;11.20;;;4.95;;
24008;SDS011;12217;50.792;4.372;2023-05-27T11:23:13;13.57;;;4.75;;
24008;SDS011;12217;50.792;4.372;2023-05-27T11:25:42;15.00;;;5.32;;
24008;SDS011;12217;50.792;4.372;2023-05-27T11:28:15;14.70;;;5.70;;
24008;SDS011;12217;50.792;4.372;2023-05-27T11:30:44;12.55;;;5.00;;
24008;SDS011;12217;50.792;4.372;2023-05-27T11:33:10;12.85;;;5.32;;
24008;SDS011;12217;50.792;4.372;2023-05-27T11:35:36;13.80;;;5.35;;
24008;SDS011;12217;50.792;4.372;2023-05-27T11:38:01;10.55;;;4.88;;
24008;SDS011;12217;50.792;4.372;2023-05-27T11:40:33;13.18;;;4.65;;
24008;SDS011;12217;50.792;4.372;2023-05-27T11:43:00;14.85;;;5.35;;
24008;SDS011;12217;50.792;4.372;2023-05-27T11:45:27;12.00;;;5.18;;
24008;SDS011;12217;50.792;4.372;2023-05-27T11:47:52;12.15;;;5.03;;
24008;SDS011;12217;50.792;4.372;2023-05-27T11:50:22;12.65;;;4.95;;
24008;SDS011;12217;50.792;4.372;2023-05-27T11:52:50;15.15;;;5.10;;
24008;SDS011;12217;50.792;4.372;2023-05-27T11:55:19;11.93;;;5.22;;
24008;SDS011;12217;50.792;4.372;2023-05-27T11:57:45;13.27;;;4.95;;
24008;SDS011;12217;50.792;4.372;2023-05-27T12:00:11;9.75;;;4.63;;
24008;SDS011;12217;50.792;4.372;2023-05-27T12:02:38;10.55;;;5.00;;
24008;SDS011;12217;50.792;4.372;2023-05-27T12:05:03;12.82;;;5.38;;
24008;SDS011;12217;50.792;4.372;2023-05-27T12:07:31;10.48;;;4.60;;
24008;SDS011;12217;50.792;4.372;2023-05-27T12:09:57;9.48;;;4.28;;
24008;SDS011;12217;50.792;4.372;2023-05-27T12:12:22;12.10;;;4.88;;
24008;SDS011;12217;50.792;4.372;2023-05-27T12:14:48;10.55;;;4.72;;
24008;SDS011;12217;50.792;4.372;2023-05-27T12:17:14;11.63;;;4.70;;
24008;SDS011;12217;50.792;4.372;2023-05-27T12:19:41;9.95;;;4.32;;
24008;SDS011;12217;50.792;4.372;2023-05-27T12:22:07;11.35;;;4.50;;
24008;SDS011;12217;50.792;4.372;2023-05-27T12:24:32;12.13;;;5.10;;
24008;SDS011;12217;50.792;4.372;2023-05-27T12:26:59;10.00;;;4.38;;
24008;SDS011;12217;50.792;4.372;2023-05-27T12:29:25;12.27;;;4.80;;
24008;SDS011;12217;50.792;4.372;2023-05-27T12:31:52;12.45;;;4.72;;
24008;SDS011;12217;50.792;4.372;2023-05-27T12:34:17;13.57;;;4.78;;
24008;SDS011;12217;50.792;4.372;2023-05-27T12:36:43;13.98;;;4.70;;
24008;SDS011;12217;50.792;4.372;2023-05-27T12:39:09;10.98;;;4.88;;
24008;SDS011;12217;50.792;4.372;2023-05-27T12:41:34;15.07;;;5.05;;
24008;SDS011;12217;50.792;4.372;2023-05-27T12:44:01;10.98;;;4.50;;
24008;SDS011;12217;50.792;4.372;2023-05-27T12:46:26;11.95;;;4.85;;
24008;SDS011;12217;50.792;4.372;2023-05-27T12:48:52;12.10;;;4.18;;
24008;SDS011;12217;50.792;4.372;2023-05-27T12:51:17;13.52;;;4.40;;
24008;SDS011;12217;50.792;4.372;2023-05-27T12:53:43;11.02;;;4.85;;
24008;SDS011;12217;50.792;4.372;2023-05-27T12:56:08;12.23;;;4.60;;
24008;SDS011;12217;50.792;4.372;2023-05-27T12:58:34;11.80;;;4.40;;
24008;SDS011;12217;50.792;4.372;2023-05-27T13:01:00;9.85;;;4.55;;
24008;SDS011;12217;50.792;4.372;2023-05-27T13:03:25;13.98;;;4.97;;
24008;SDS011;12217;50.792;4.372;2023-05-27T13:05:51;13.07;;;5.05;;
24008;SDS011;12217;50.792;4.372;2023-05-27T13:08:17;12.85;;;4.47;;
24008;SDS011;12217;50.792;4.372;2023-05-27T13:10:42;11.63;;;4.68;;
24008;SDS011;12217;50.792;4.372;2023-05-27T13:13:08;10.73;;;4.45;;
24008;SDS011;12217;50.792;4.372;2023-05-27T13:15:34;8.50;;;4.60;;
24008;SDS011;12217;50.792;4.372;2023-05-27T13:17:59;9.85;;;4.68;;
24008;SDS011;12217;50.792;4.372;2023-05-27T13:20:27;9.45;;;4.03;;
24008;SDS011;12217;50.792;4.372;2023-05-27T13:22:54;10.18;;;4.30;;
24008;SDS011;12217;50.792;4.372;2023-05-27T13:25:24;10.05;;;4.72;;
24008;SDS011;12217;50.792;4.372;2023-05-27T13:27:50;9.93;;;4.13;;
24008;SDS011;12217;50.792;4.372;2023-05-27T13:30:18;11.00;;;4.05;;
24008;SDS011;12217;50.792;4.372;2023-05-27T13:32:44;12.70;;;4.90;;
24008;SDS011;12217;50.792;4.372;2023-05-27T13:35:10;11.35;;;4.82;;
24008;SDS011;12217;50.792;4.372;2023-05-27T13:37:36;10.70;;;4.50;;
24008;SDS011;12217;50.792;4.372;2023-05-27T13:40:03;11.80;;;4.80;;
24008;SDS011;12217;50.792;4.372;2023-05-27T13:42:29;13.65;;;5.60;;
24008;SDS011;12217;50.792;4.372;2023-05-27T13:44:55;10.55;;;5.03;;
24008;SDS011;12217;50.792;4.372;2023-05-27T13:47:21;11.82;;;4.40;;
24008;SDS011;12217;50.792;4.372;2023-05-27T13:49:46;11.48;;;4.40;;
24008;SDS011;12217;50.792;4.372;2023-05-27T13:52:12;10.23;;;4.55;;
24008;SDS011;12217;50.792;4.372;2023-05-27T13:54:37;13.02;;;4.82;;
24008;SDS011;12217;50.792;4.372;2023-05-27T13:57:03;13.20;;;5.00;;
24008;SDS011;12217;50.792;4.372;2023-05-27T13:59:29;13.80;;;4.38;;
24008;SDS011;12217;50.792;4.372;2023-05-27T14:01:55;15.52;;;4.85;;
24008;SDS011;12217;50.792;4.372;2023-05-27T14:04:20;15.65;;;4.53;;
24008;SDS011;12217;50.792;4.372;2023-05-27T14:06:46;12.18;;;4.47;;
24008;SDS011;12217;50.792;4.372;2023-05-27T14:09:12;11.38;;;4.43;;
24008;SDS011;12217;50.792;4.372;2023-05-27T14:11:38;12.63;;;4.53;;
24008;SDS011;12217;50.792;4.372;2023-05-27T14:14:03;10.25;;;4.32;;
24008;SDS011;12217;50.792;4.372;2023-05-27T14:16:29;11.10;;;4.25;;
24008;SDS011;12217;50.792;4.372;2023-05-27T14:18:55;9.82;;;3.90;;
24008;SDS011;12217;50.792;4.372;2023-05-27T14:21:20;9.98;;;4.25;;
24008;SDS011;12217;50.792;4.372;2023-05-27T14:23:46;9.75;;;4.50;;
24008;SDS011;12217;50.792;4.372;2023-05-27T14:26:12;12.95;;;4.95;;
24008;SDS011;12217;50.792;4.372;2023-05-27T14:28:38;10.25;;;4.50;;
24008;SDS011;12217;50.792;4.372;2023-05-27T14:31:03;11.57;;;4.45;;
24008;SDS011;12217;50.792;4.372;2023-05-27T14:33:29;11.95;;;4.85;;
24008;SDS011;12217;50.792;4.372;2023-05-27T14:35:55;12.48;;;4.63;;
24008;SDS011;12217;50.792;4.372;2023-05-27T14:38:20;12.15;;;4.60;;
24008;SDS011;12217;50.792;4.372;2023-05-27T14:40:46;12.30;;;4.57;;
24008;SDS011;12217;50.792;4.372;2023-05-27T14:43:12;9.48;;;4.60;;